Time;durP1;ratioP1;P1;durP2;ratioP2;P2;SDS_P1;SDS_P2;PMS_P1;PMS_P2;Temp;Humidity;BMP_temperature;BMP_pressure;BME280_temperature;BME280_humidity;BME280_pressure;Samples;Min_cycle;Max_cycle;Signal;HPM_P1;HPM_P2
2022/05/29 00:02:12;;;;;;;0.40;0.30;;;;;;;12.50;65.95;99854.49;102891;1279;139527;-70
2022/05/29 00:04:40;;;;;;;0.40;0.30;;;;;;;12.52;65.99;99856.17;104186;1279;95735;-71
2022/05/29 00:07:14;;;;;;;0.40;0.30;;;;;;;12.54;66.04;99856.79;104336;1279;109880;-70
2022/05/29 00:09:47;;;;;;;0.40;0.30;;;;;;;12.48;66.35;99856.54;104188;1279;138116;-70
2022/05/29 00:12:17;;;;;;;0.40;0.30;;;;;;;12.49;66.66;99858.27;104279;1279;108909;-70
2022/05/29 00:14:47;;;;;;;0.40;0.30;;;;;;;12.48;66.75;99859.22;104165;1279;140067;-70
2022/05/29 00:17:18;;;;;;;0.40;0.30;;;;;;;12.47;67.30;99862.64;104337;1279;95773;-70
2022/05/29 00:19:47;;;;;;;0.40;0.30;;;;;;;12.46;67.19;99861.79;104047;1279;138913;-71
2022/05/29 00:22:18;;;;;;;0.40;0.30;;;;;;;12.45;67.31;99857.76;104099;1279;98421;-70
2022/05/29 00:24:47;;;;;;;0.40;0.30;;;;;;;12.44;67.17;99859.75;104161;1279;108801;-71
2022/05/29 00:27:16;;;;;;;0.40;0.30;;;;;;;12.46;67.13;99856.95;104132;1279;139245;-70
2022/05/29 00:29:45;;;;;;;0.40;0.30;;;;;;;12.47;66.96;99859.22;104102;1279;95306;-71
2022/05/29 00:32:13;;;;;;;0.40;0.30;;;;;;;12.49;66.94;99862.17;104220;1279;139580;-72
2022/05/29 00:34:41;;;;;;;0.40;0.30;;;;;;;12.52;67.05;99859.36;104348;1279;99636;-70
2022/05/29 00:37:11;;;;;;;0.40;0.30;;;;;;;12.50;66.81;99862.49;104237;1279;108938;-71
2022/05/29 00:39:38;;;;;;;0.40;0.30;;;;;;;12.45;66.99;99865.40;104174;1279;138512;-71
2022/05/29 00:42:10;;;;;;;0.40;0.30;;;;;;;12.47;67.02;99865.48;104134;1279;95645;-71
2022/05/29 00:44:38;;;;;;;0.40;0.30;;;;;;;12.53;66.89;99869.83;104179;1279;139362;-72
2022/05/29 00:47:06;;;;;;;0.40;0.30;;;;;;;12.53;66.67;99865.23;104346;1279;99760;-70
2022/05/29 00:49:36;;;;;;;0.40;0.30;;;;;;;12.44;66.66;99865.60;104257;1279;108888;-70
2022/05/29 00:52:07;;;;;;;0.40;0.30;;;;;;;12.44;66.90;99867.59;104058;1279;138630;-70
2022/05/29 00:54:42;;;;;;;0.40;0.30;;;;;;;12.48;66.66;99867.19;104146;1279;95164;-70
2022/05/29 00:57:14;;;;;;;0.40;0.30;;;;;;;12.45;66.57;99866.62;104096;1279;138353;-71
2022/05/29 00:59:43;;;;;;;0.40;0.30;;;;;;;12.48;66.77;99864.36;104286;1279;99538;-71
2022/05/29 01:02:11;;;;;;;0.40;0.30;;;;;;;12.58;66.64;99862.69;104092;1279;138912;-70
2022/05/29 01:04:41;;;;;;;0.40;0.30;;;;;;;12.59;66.36;99858.91;104304;1279;95243;-70
2022/05/29 01:07:12;;;;;;;0.40;0.30;;;;;;;12.56;66.36;99857.61;104191;1279;95221;-70
2022/05/29 01:09:42;;;;;;;0.40;0.30;;;;;;;12.52;66.18;99854.59;104151;1279;138792;-70
2022/05/29 01:12:38;;;;;;;0.40;0.30;;;;;;;12.54;66.35;99858.08;104096;1279;99691;-70
2022/05/29 01:15:33;;;;;;;0.40;0.30;;;;;;;12.61;66.17;99857.92;104113;1279;138283;-71
2022/05/29 01:18:16;;;;;;;0.40;0.30;;;;;;;12.64;66.31;99856.37;104256;1279;96181;-70
2022/05/29 01:21:06;;;;;;;0.40;0.30;;;;;;;12.64;66.12;99853.70;104171;1277;138829;-70
2022/05/29 01:23:59;;;;;;;0.40;0.30;;;;;;;12.59;65.87;99852.87;104224;1279;110299;-70
2022/05/29 01:26:59;;;;;;;0.40;0.30;;;;;;;12.52;66.02;99856.70;104076;1279;138671;-71
2022/05/29 01:29:59;;;;;;;0.40;0.30;;;;;;;12.51;65.92;99860.30;104090;1279;108789;-70
2022/05/29 01:32:39;;;;;;;0.40;0.30;;;;;;;12.51;66.01;99862.41;103753;1279;139011;-71
2022/05/29 01:35:23;;;;;;;0.40;0.30;;;;;;;12.55;66.06;99864.27;104156;1279;96389;-70
2022/05/29 01:38:17;;;;;;;0.40;0.30;;;;;;;12.53;65.90;99860.07;104079;1279;139116;-71
2022/05/29 01:40:55;;;;;;;0.40;0.30;;;;;;;12.56;65.87;99858.66;104109;1279;97603;-70
2022/05/29 01:43:30;;;;;;;0.40;0.30;;;;;;;12.56;65.94;99865.10;104473;1279;108763;-69
2022/05/29 01:46:11;;;;;;;0.40;0.30;;;;;;;12.60;65.62;99863.83;104011;1279;139540;-71
2022/05/29 01:48:55;;;;;;;0.40;0.30;;;;;;;12.54;65.62;99865.89;104134;1279;97085;-70
2022/05/29 01:52:14;;;;;;;0.40;0.30;;;;;;;12.50;65.88;99861.98;103921;1281;139560;-70
2022/05/29 01:54:55;;;;;;;0.40;0.30;;;;;;;12.55;66.04;99862.11;103803;1280;98801;-71
2022/05/29 01:57:33;;;;;;;0.40;0.30;;;;;;;12.64;65.54;99858.16;103973;1279;138648;-72
2022/05/29 02:00:06;;;;;;;0.40;0.30;;;;;;;12.61;65.70;99857.92;104049;1279;95229;-70
2022/05/29 02:02:49;;;;;;;0.40;0.30;;;;;;;12.52;65.76;99859.21;103917;1280;138683;-70
2022/05/29 02:05:23;;;;;;;0.40;0.30;;;;;;;12.48;66.20;99860.98;104090;1279;108677;-70
2022/05/29 02:08:01;;;;;;;0.40;0.20;;;;;;;12.40;66.56;99864.67;104051;1279;139100;-69
2022/05/29 02:10:43;;;;;;;0.40;0.30;;;;;;;12.41;66.67;99860.55;104374;1279;109010;-70
2022/05/29 02:13:19;;;;;;;0.40;0.30;;;;;;;12.41;66.73;99855.39;104146;1279;95755;-70
2022/05/29 02:15:58;;;;;;;0.40;0.30;;;;;;;12.45;66.87;99857.01;103864;1281;138370;-70
2022/05/29 02:18:40;;;;;;;0.40;0.30;;;;;;;12.48;66.96;99857.59;104103;1279;109716;-71
2022/05/29 02:21:14;;;;;;;0.40;0.30;;;;;;;12.55;67.26;99854.43;104059;1279;140215;-69
2022/05/29 02:23:47;;;;;;;0.40;0.30;;;;;;;12.65;67.33;99854.39;104081;1279;202955;-70
2022/05/29 02:26:25;;;;;;;0.40;0.30;;;;;;;12.66;67.16;99855.04;104017;1279;139126;-70
2022/05/29 02:29:01;;;;;;;0.40;0.30;;;;;;;12.64;67.00;99854.23;104141;1279;95230;-71
2022/05/29 02:31:48;;;;;;;0.40;0.30;;;;;;;12.56;67.00;99857.63;104116;1279;109820;-71
2022/05/29 02:34:35;;;;;;;0.40;0.30;;;;;;;12.56;67.24;99852.81;104154;1279;99430;-68
2022/05/29 02:37:27;;;;;;;0.40;0.30;;;;;;;12.60;67.44;99853.71;104145;1279;108661;-69
2022/05/29 02:40:08;;;;;;;0.40;0.30;;;;;;;12.68;67.06;99852.45;104102;1279;138581;-70
2022/05/29 02:43:15;;;;;;;0.40;0.30;;;;;;;12.72;67.06;99852.30;104178;1279;96167;-71
2022/05/29 02:45:46;;;;;;;0.40;0.30;;;;;;;12.69;67.08;99855.80;104079;1279;138856;-70
2022/05/29 02:48:29;;;;;;;0.40;0.30;;;;;;;12.64;67.18;99854.23;104172;1279;98525;-71
2022/05/29 02:51:16;;;;;;;0.40;0.30;;;;;;;12.66;66.97;99852.73;104027;1279;138722;-71
2022/05/29 02:53:46;;;;;;;0.40;0.30;;;;;;;12.60;67.10;99854.05;104207;1279;96486;-71
2022/05/29 02:56:15;;;;;;;0.40;0.30;;;;;;;12.61;67.26;99856.32;104222;1279;139045;-70
2022/05/29 02:58:50;;;;;;;0.40;0.30;;;;;;;12.63;67.21;99857.48;104152;1279;109064;-72
2022/05/29 03:01:20;;;;;;;0.40;0.30;;;;;;;12.66;67.02;99865.17;104161;1279;99657;-72
2022/05/29 03:04:28;;;;;;;0.40;0.30;;;;;;;12.73;67.15;99866.70;104066;1279;138811;-69
2022/05/29 03:06:58;;;;;;;0.40;0.20;;;;;;;12.85;66.97;99866.52;104166;1279;95853;-70
2022/05/29 03:09:48;;;;;;;0.40;0.30;;;;;;;12.78;66.73;99869.99;103625;1279;138411;-70
2022/05/29 03:12:31;;;;;;;0.40;0.30;;;;;;;12.80;66.68;99872.77;104169;1279;110581;-70
2022/05/29 03:15:22;;;;;;;0.40;0.40;;;;;;;12.76;66.65;99876.16;104117;1279;138867;-70
2022/05/29 03:18:15;;;;;;;0.40;0.30;;;;;;;12.77;66.65;99877.20;104210;1279;108857;-70
2022/05/29 03:20:59;;;;;;;0.40;0.30;;;;;;;12.82;66.62;99880.87;104163;1279;138303;-72
2022/05/29 03:23:45;;;;;;;0.40;0.30;;;;;;;12.83;66.55;99884.02;104161;1279;95220;-71
2022/05/29 03:26:50;;;;;;;0.40;0.30;;;;;;;12.84;66.52;99887.54;104073;1279;142191;-70
2022/05/29 03:29:25;;;;;;;0.40;0.30;;;;;;;12.86;66.39;99881.44;103779;1279;99421;-70
2022/05/29 03:31:54;;;;;;;0.40;0.30;;;;;;;12.84;66.16;99880.61;104049;1279;138988;-70
2022/05/29 03:34:22;;;;;;;0.40;0.30;;;;;;;12.84;66.62;99879.52;104111;1279;95946;-71
2022/05/29 03:36:51;;;;;;;0.40;0.30;;;;;;;12.82;66.55;99875.17;104165;1279;95836;-71
2022/05/29 03:39:20;;;;;;;0.40;0.30;;;;;;;12.88;66.38;99875.45;104081;1279;138811;-69
2022/05/29 03:41:51;;;;;;;0.40;0.30;;;;;;;12.92;66.09;99876.73;104186;1279;99797;-71
2022/05/29 03:44:22;;;;;;;0.40;0.30;;;;;;;12.86;66.23;99876.42;104501;1279;139019;-71
2022/05/29 03:46:50;;;;;;;0.40;0.30;;;;;;;12.75;66.17;99877.27;104114;1280;95264;-70
2022/05/29 03:49:21;;;;;;;0.40;0.30;;;;;;;12.76;66.38;99877.21;104197;1279;95126;-70
2022/05/29 03:51:49;;;;;;;0.40;0.30;;;;;;;12.82;66.40;99880.89;104054;1279;138838;-70
2022/05/29 03:54:18;;;;;;;0.40;0.30;;;;;;;12.84;66.25;99882.41;104128;1279;99307;-71
2022/05/29 03:56:46;;;;;;;0.40;0.30;;;;;;;12.76;66.26;99886.31;104567;1279;138721;-71
2022/05/29 03:59:13;;;;;;;0.40;0.30;;;;;;;12.69;66.22;99894.06;104165;1279;95582;-70
2022/05/29 04:01:41;;;;;;;0.40;0.30;;;;;;;12.80;66.49;99890.58;104229;1279;95642;-70
2022/05/29 04:04:09;;;;;;;0.40;0.30;;;;;;;12.89;66.03;99891.09;104165;1279;108751;-71
2022/05/29 04:06:40;;;;;;;0.40;0.30;;;;;;;12.95;66.35;99890.30;104222;1279;99836;-70
2022/05/29 04:12:04;;;;;;;0.40;0.30;;;;;;;12.86;66.00;99895.65;104164;1279;97179;-71
2022/05/29 04:14:39;;;;;;;0.40;0.30;;;;;;;12.77;65.86;99899.64;104149;1279;138985;-71
2022/05/29 04:17:09;;;;;;;0.40;0.30;;;;;;;12.68;66.05;99904.47;104244;1279;110271;-71
2022/05/29 04:19:38;;;;;;;0.40;0.30;;;;;;;12.62;66.08;99903.65;104216;1279;98364;-71
2022/05/29 04:22:09;;;;;;;0.40;0.30;;;;;;;12.71;66.19;99908.78;104196;1279;137998;-72
2022/05/29 04:24:37;;;;;;;0.40;0.30;;;;;;;12.71;66.06;99910.19;104229;1279;95238;-71
2022/05/29 04:27:08;;;;;;;0.40;0.30;;;;;;;12.65;65.91;99905.13;104086;1279;138850;-70
2022/05/29 04:29:36;;;;;;;0.40;0.30;;;;;;;12.71;66.04;99910.95;104218;1278;109155;-71
2022/05/29 04:34:58;;;;;;;0.40;0.30;;;;;;;12.84;66.07;99918.02;104243;1279;108809;-70
2022/05/29 04:37:28;;;;;;;0.40;0.30;;;;;;;12.83;65.85;99914.86;104187;1279;95250;-72
2022/05/29 04:39:57;;;;;;;0.40;0.30;;;;;;;12.82;65.75;99918.11;104157;1279;138816;-71
2022/05/29 04:42:25;;;;;;;0.40;0.30;;;;;;;12.85;65.76;99914.58;104365;1279;108684;-70
2022/05/29 04:44:52;;;;;;;0.40;0.30;;;;;;;12.89;65.87;99918.71;104069;1279;138890;-71
2022/05/29 04:47:20;;;;;;;0.40;0.30;;;;;;;12.90;65.51;99914.71;104256;1279;108958;-70
2022/05/29 04:49:48;;;;;;;0.40;0.30;;;;;;;12.93;65.49;99921.05;104099;1279;138517;-72
2022/05/29 04:52:16;;;;;;;0.40;0.30;;;;;;;12.98;65.60;99922.27;104236;1279;95883;-70
2022/05/29 04:54:43;;;;;;;0.40;0.30;;;;;;;12.93;65.24;99926.21;104230;1279;110396;-70
2022/05/29 04:57:11;;;;;;;0.40;0.30;;;;;;;12.95;65.32;99926.81;104134;1279;138155;-71
2022/05/29 04:59:39;;;;;;;0.40;0.30;;;;;;;13.01;65.48;99926.21;104166;1279;108797;-71
2022/05/29 05:02:07;;;;;;;0.40;0.30;;;;;;;13.02;65.60;99923.69;104115;1279;139145;-72
2022/05/29 05:04:35;;;;;;;0.40;0.30;;;;;;;13.02;65.21;99922.63;104144;1279;96966;-71
2022/05/29 05:07:03;;;;;;;0.40;0.30;;;;;;;13.00;65.24;99921.78;104184;1281;109902;-70
2022/05/29 05:09:31;;;;;;;0.40;0.30;;;;;;;13.02;65.20;99918.66;104135;1279;138044;-72
2022/05/29 05:11:59;;;;;;;0.40;0.30;;;;;;;13.00;65.21;99920.90;104122;1280;108685;-71
2022/05/29 05:14:27;;;;;;;0.40;0.20;;;;;;;13.08;65.39;99919.11;103978;1280;138977;-71
2022/05/29 05:16:56;;;;;;;0.40;0.20;;;;;;;13.19;65.25;99922.21;104225;1279;95225;-70
2022/05/29 05:19:24;;;;;;;0.40;0.30;;;;;;;13.24;65.17;99922.17;104309;1280;109940;-71
2022/05/29 05:21:52;;;;;;;0.40;0.30;;;;;;;13.20;65.07;99923.58;104019;1281;138897;-71
2022/05/29 05:24:21;;;;;;;0.40;0.30;;;;;;;13.26;64.84;99927.80;104178;1280;108953;-71
2022/05/29 05:26:49;;;;;;;0.40;0.30;;;;;;;13.31;64.94;99930.42;104008;1281;138720;-71
2022/05/29 05:29:17;;;;;;;0.40;0.30;;;;;;;13.30;64.85;99930.98;104180;1281;96193;-70
2022/05/29 05:31:45;;;;;;;0.40;0.30;;;;;;;13.24;64.92;99929.09;104019;1280;138141;-72
2022/05/29 05:34:12;;;;;;;0.40;0.30;;;;;;;13.19;64.94;99925.96;104234;1280;99478;-72
2022/05/29 05:36:40;;;;;;;0.40;0.30;;;;;;;13.18;65.02;99928.14;104155;1281;109296;-71
2022/05/29 05:39:08;;;;;;;0.40;0.20;;;;;;;13.23;65.02;99925.42;104065;1281;139036;-71
2022/05/29 05:41:36;;;;;;;0.40;0.30;;;;;;;13.32;64.99;99928.94;104193;1281;98191;-71
2022/05/29 05:44:04;;;;;;;0.40;0.30;;;;;;;13.45;65.38;99930.53;104096;1279;137506;-71
2022/05/29 05:46:32;;;;;;;0.40;0.30;;;;;;;13.64;64.75;99929.11;104110;1281;99428;-70
2022/05/29 05:49:00;;;;;;;0.40;0.20;;;;;;;13.71;64.41;99930.60;104141;1281;108800;-73
2022/05/29 05:51:28;;;;;;;0.40;0.20;;;;;;;13.77;63.96;99931.21;104057;1280;138731;-70
2022/05/29 05:53:55;;;;;;;0.40;0.30;;;;;;;13.80;63.59;99930.87;104235;1281;95685;-70
2022/05/29 05:56:23;;;;;;;0.40;0.20;;;;;;;13.83;63.50;99936.23;104046;1281;138499;-71
2022/05/29 05:58:51;;;;;;;0.40;0.20;;;;;;;13.90;63.67;99935.74;104177;1281;99504;-72
2022/05/29 06:01:18;;;;;;;0.40;0.30;;;;;;;13.96;63.36;99932.98;104097;1281;108906;-73
2022/05/29 06:03:47;;;;;;;0.40;0.20;;;;;;;14.04;63.28;99940.41;104080;1280;138298;-70
2022/05/29 06:06:15;;;;;;;0.40;0.30;;;;;;;14.01;62.80;99945.94;104193;1279;95618;-70
2022/05/29 06:08:43;;;;;;;0.40;0.20;;;;;;;13.99;62.74;99943.38;104039;1279;138423;-68
2022/05/29 06:11:11;;;;;;;0.40;0.20;;;;;;;13.99;62.50;99944.39;104266;1278;99569;-70
2022/05/29 06:13:39;;;;;;;0.40;0.20;;;;;;;13.95;62.47;99941.42;104218;1281;108767;-71
2022/05/29 06:16:08;;;;;;;0.40;0.20;;;;;;;13.98;62.83;99945.36;104039;1279;137958;-73
2022/05/29 06:18:36;;;;;;;0.40;0.20;;;;;;;14.03;62.61;99945.84;104225;1279;95702;-72
2022/05/29 06:21:04;;;;;;;0.40;0.20;;;;;;;14.09;61.94;99946.96;104112;1279;139212;-71
2022/05/29 06:23:35;;;;;;;0.40;0.30;;;;;;;14.16;61.71;99946.63;104193;1279;99423;-71
2022/05/29 06:26:04;;;;;;;0.40;0.20;;;;;;;14.24;61.73;99946.44;104170;1281;138128;-70
2022/05/29 06:28:34;;;;;;;0.40;0.30;;;;;;;14.31;61.43;99952.72;104289;1280;95862;-71
2022/05/29 06:31:07;;;;;;;0.40;0.20;;;;;;;14.43;61.75;99955.15;104169;1280;95743;-71
2022/05/29 06:33:36;;;;;;;0.40;0.20;;;;;;;14.53;60.65;99959.83;104105;1281;139242;-71
2022/05/29 06:36:10;;;;;;;0.40;0.20;;;;;;;14.47;59.97;99964.24;104248;1281;99645;-72
2022/05/29 06:38:39;;;;;;;0.40;0.20;;;;;;;14.57;60.44;99969.11;104043;1281;137971;-70
2022/05/29 06:41:08;;;;;;;0.40;0.20;;;;;;;14.66;60.15;99969.06;104199;1279;95251;-72
2022/05/29 06:43:37;;;;;;;0.40;0.20;;;;;;;14.68;59.62;99971.24;104446;1280;96055;-70
2022/05/29 06:46:07;;;;;;;0.40;0.20;;;;;;;14.72;59.61;99970.91;104108;1281;138294;-70
2022/05/29 06:48:37;;;;;;;0.40;0.20;;;;;;;14.81;60.09;99971.89;104262;1280;98382;-71
2022/05/29 06:51:11;;;;;;;0.40;0.20;;;;;;;14.89;59.27;99976.46;104143;1281;141163;-70
2022/05/29 06:53:40;;;;;;;0.40;0.20;;;;;;;14.96;58.34;99971.46;104250;1279;95748;-71
2022/05/29 06:56:09;;;;;;;0.40;0.20;;;;;;;14.92;58.63;99971.49;104297;1280;138049;-71
2022/05/29 06:58:37;;;;;;;0.40;0.20;;;;;;;14.94;59.00;99974.09;104220;1280;110072;-70
2022/05/29 07:07:00;;;;;;;0.40;0.20;;;;;;;15.16;58.72;99983.84;104091;1278;95639;-71
2022/05/29 07:09:31;;;;;;;0.40;0.20;;;;;;;15.17;58.48;99985.40;104112;1277;138011;-71
2022/05/29 07:12:05;;;;;;;0.40;0.20;;;;;;;15.08;58.15;99982.30;104264;1281;110501;-70
2022/05/29 07:14:44;;;;;;;0.40;0.20;;;;;;;14.99;58.54;99987.40;103821;1281;138539;-71
2022/05/29 07:17:12;;;;;;;0.40;0.20;;;;;;;15.00;58.29;99992.18;104209;1281;109119;-70
2022/05/29 07:19:44;;;;;;;0.40;0.20;;;;;;;15.03;58.78;99994.90;104209;1281;95750;-70
2022/05/29 07:22:12;;;;;;;0.40;0.20;;;;;;;15.14;58.80;100000.77;104143;1281;95688;-71
2022/05/29 07:24:40;;;;;;;0.40;0.20;;;;;;;15.05;58.19;100001.57;104219;1282;109224;-71
2022/05/29 07:27:08;;;;;;;0.40;0.20;;;;;;;15.07;58.93;100002.19;104090;1280;137931;-70
2022/05/29 07:29:36;;;;;;;0.40;0.20;;;;;;;15.18;58.46;100006.45;104187;1280;108813;-70
2022/05/29 07:32:05;;;;;;;0.40;0.20;;;;;;;15.27;57.86;100001.52;104104;1280;138887;-70
2022/05/29 07:34:33;;;;;;;0.40;0.20;;;;;;;15.31;57.76;100004.17;104541;1280;96118;-72
2022/05/29 07:37:09;;;;;;;0.40;0.20;;;;;;;15.28;57.36;100010.45;104117;1281;110123;-71
2022/05/29 07:39:44;;;;;;;0.40;0.20;;;;;;;15.29;57.55;100010.02;104201;1281;138285;-71
2022/05/29 07:45:02;;;;;;;0.40;0.20;;;;;;;15.45;57.28;100011.70;104124;1281;138713;-70
2022/05/29 07:47:37;;;;;;;0.40;0.20;;;;;;;15.56;57.22;100010.01;104118;1281;95554;-70
2022/05/29 07:50:06;;;;;;;0.40;0.20;;;;;;;15.75;57.07;100009.91;104040;1281;138298;-70
2022/05/29 07:52:34;;;;;;;0.40;0.20;;;;;;;15.93;56.08;100015.08;104360;1280;99482;-70
2022/05/29 07:55:03;;;;;;;0.40;0.20;;;;;;;15.97;55.67;100016.98;104194;1281;109233;-70
2022/05/29 07:57:31;;;;;;;0.40;0.20;;;;;;;16.07;56.06;100016.06;104175;1281;138222;-70
2022/05/29 07:59:59;;;;;;;0.40;0.20;;;;;;;16.20;55.04;100016.27;104260;1281;96770;-69
2022/05/29 08:02:28;;;;;;;0.40;0.20;;;;;;;16.27;54.93;100014.61;104107;1280;139120;-70
2022/05/29 08:04:59;;;;;;;0.40;0.20;;;;;;;16.35;54.38;100013.98;104414;1278;98350;-70
2022/05/29 08:07:27;;;;;;;0.40;0.20;;;;;;;16.36;54.51;100021.98;104266;1278;108867;-71
2022/05/29 08:09:55;;;;;;;0.40;0.20;;;;;;;16.33;54.13;100025.54;104211;1281;138184;-69
2022/05/29 08:12:24;;;;;;;0.40;0.20;;;;;;;16.29;53.82;100027.20;104302;1280;95121;-71
2022/05/29 08:14:56;;;;;;;0.40;0.20;;;;;;;16.40;53.47;100023.54;104129;1279;138593;-70
2022/05/29 08:17:24;;;;;;;0.40;0.20;;;;;;;16.56;53.25;100021.39;104189;1281;99714;-70
2022/05/29 08:19:51;;;;;;;0.40;0.20;;;;;;;16.54;52.89;100023.50;104215;1278;139167;-70
2022/05/29 08:22:19;;;;;;;0.40;0.20;;;;;;;16.35;53.50;100022.41;104162;1281;95831;-70
2022/05/29 08:30:51;;;;;;;0.40;0.20;;;;;;;16.26;53.78;100029.88;104258;1278;99382;-69
2022/05/29 08:33:33;;;;;;;0.40;0.20;;;;;;;16.47;53.29;100026.40;104309;1281;138664;-70
2022/05/29 08:36:03;;;;;;;0.40;0.20;;;;;;;16.77;53.17;100019.85;104203;1279;95419;-72
2022/05/29 08:38:33;;;;;;;0.40;0.20;;;;;;;17.05;53.06;100022.01;104170;1281;138084;-70
2022/05/29 08:41:05;;;;;;;0.40;0.20;;;;;;;17.24;50.91;100022.14;104297;1278;109653;-70
2022/05/29 08:43:36;;;;;;;0.40;0.20;;;;;;;17.51;50.69;100012.60;104299;1281;97830;-70
2022/05/29 08:46:23;;;;;;;0.40;0.20;;;;;;;17.56;49.06;100022.19;104324;1280;138033;-70
2022/05/29 08:48:53;;;;;;;0.40;0.10;;;;;;;17.55;49.41;100026.88;104286;1278;95857;-70
2022/05/29 08:51:54;;;;;;;0.40;0.20;;;;;;;17.51;47.98;100024.99;104180;1278;138468;-69
2022/05/29 08:54:37;;;;;;;0.40;0.20;;;;;;;17.57;48.48;100029.30;104245;1279;109786;-71
2022/05/29 08:57:29;;;;;;;0.40;0.20;;;;;;;17.55;48.37;100027.61;104094;1278;139473;-71
2022/05/29 09:00:04;;;;;;;0.40;0.20;;;;;;;17.48;48.95;100030.95;104246;1278;108848;-69
2022/05/29 09:03:06;;;;;;;0.40;0.20;;;;;;;17.37;48.67;100030.14;104137;1280;139043;-69
2022/05/29 09:05:41;;;;;;;0.40;0.20;;;;;;;17.33;49.71;100038.28;104119;1281;95993;-70
2022/05/29 09:08:23;;;;;;;0.40;0.20;;;;;;;17.49;48.54;100028.67;104167;1280;138554;-70
2022/05/29 09:10:56;;;;;;;0.40;0.10;;;;;;;17.85;47.71;100027.95;104152;1280;99399;-70
2022/05/29 09:13:45;;;;;;;0.40;0.20;;;;;;;18.06;46.73;100023.95;104169;1279;108875;-70
2022/05/29 09:16:17;;;;;;;0.40;0.10;;;;;;;18.37;45.78;100019.09;104112;1279;96160;-71
2022/05/29 09:19:17;;;;;;;0.40;0.10;;;;;;;18.62;46.09;100024.63;104181;1279;95346;-70
2022/05/29 09:21:54;;;;;;;0.40;0.20;;;;;;;18.60;45.31;100021.73;103593;1280;138509;-70
2022/05/29 09:24:27;;;;;;;0.40;0.10;;;;;;;19.14;43.93;100026.94;104123;1279;99025;-71
2022/05/29 09:26:55;;;;;;;0.40;0.20;;;;;;;19.33;43.15;100017.20;104122;1278;138698;-71
2022/05/29 09:29:23;;;;;;;0.40;0.10;;;;;;;20.74;41.76;100015.66;104194;1279;95727;-71
2022/05/29 09:31:52;;;;;;;0.40;0.10;;;;;;;21.52;39.46;100021.30;104119;1280;139327;-71
2022/05/29 09:34:21;;;;;;;0.40;0.10;;;;;;;22.33;37.53;100007.98;104281;1278;110073;-71
2022/05/29 09:37:11;;;;;;;0.40;0.10;;;;;;;23.32;35.45;100007.91;104174;1279;99658;-71
2022/05/29 09:39:52;;;;;;;0.40;0.10;;;;;;;23.02;36.24;100013.19;104094;1277;138422;-71
2022/05/29 09:42:36;;;;;;;0.40;0.10;;;;;;;22.41;37.09;100009.92;104186;1277;95228;-70
2022/05/29 09:45:12;;;;;;;0.40;0.10;;;;;;;22.01;38.49;100021.64;104144;1279;138675;-70
2022/05/29 09:50:57;;;;;;;0.40;0.10;;;;;;;21.36;39.86;100026.54;104041;1279;139513;-70
2022/05/29 09:53:29;;;;;;;0.40;0.10;;;;;;;20.77;39.28;100029.83;103928;1278;109296;-71
2022/05/29 09:56:03;;;;;;;0.40;0.10;;;;;;;20.17;40.71;100031.00;104048;1279;138742;-71
2022/05/29 09:58:47;;;;;;;0.40;0.10;;;;;;;19.92;40.81;100029.02;104153;1280;95607;-70
2022/05/29 10:01:45;;;;;;;0.40;0.10;;;;;;;19.77;41.11;100035.98;104130;1279;108043;-70
2022/05/29 10:04:32;;;;;;;0.40;0.10;;;;;;;19.51;40.87;100033.85;104233;1279;97303;-71
2022/05/29 10:06:59;;;;;;;0.40;0.10;;;;;;;19.25;42.25;100037.94;104156;1279;109245;-71
2022/05/29 10:09:27;;;;;;;0.40;0.10;;;;;;;19.12;43.24;100041.70;104017;1279;137360;-70
2022/05/29 10:12:14;;;;;;;0.40;0.10;;;;;;;18.88;43.52;100042.56;104139;1279;95667;-71
2022/05/29 10:14:44;;;;;;;0.40;0.10;;;;;;;18.79;44.35;100039.21;104064;1279;138227;-71
2022/05/29 10:17:16;;;;;;;0.40;0.10;;;;;;;18.75;44.31;100039.44;104187;1279;99462;-71
2022/05/29 10:19:46;;;;;;;0.40;0.10;;;;;;;18.62;44.87;100048.96;104001;1279;138415;-71
2022/05/29 10:22:22;;;;;;;0.40;0.10;;;;;;;18.46;45.10;100049.94;104191;1279;95263;-70
2022/05/29 10:24:51;;;;;;;0.40;0.10;;;;;;;18.30;46.13;100060.36;104259;1279;95668;-70
2022/05/29 10:27:36;;;;;;;0.40;0.10;;;;;;;18.10;46.39;100063.20;104148;1279;137987;-72
2022/05/29 10:30:08;;;;;;;0.40;0.10;;;;;;;17.90;47.23;100067.70;104239;1279;99485;-72
2022/05/29 10:32:40;;;;;;;0.40;0.20;;;;;;;17.78;48.01;100067.19;104148;1279;141349;-72
2022/05/29 10:35:11;;;;;;;0.40;0.10;;;;;;;17.66;47.67;100065.00;103967;1280;95665;-70
2022/05/29 10:37:44;;;;;;;0.40;0.10;;;;;;;17.45;47.56;100067.89;104183;1279;96234;-71
2022/05/29 10:40:28;;;;;;;0.40;0.10;;;;;;;17.33;47.66;100062.88;104250;1279;109762;-70
2022/05/29 10:43:00;;;;;;;0.40;0.20;;;;;;;17.18;48.21;100058.55;104236;1279;99389;-71
2022/05/29 10:45:41;;;;;;;0.40;0.10;;;;;;;17.17;49.30;100047.85;104114;1279;138630;-71
2022/05/29 10:48:12;;;;;;;0.40;0.10;;;;;;;17.32;49.48;100049.66;104148;1279;95742;-70
2022/05/29 10:51:17;;;;;;;0.40;0.20;;;;;;;17.34;49.38;100048.42;104049;1279;138599;-70
2022/05/29 10:54:12;;;;;;;0.40;0.20;;;;;;;17.41;49.39;100045.17;104177;1279;109727;-69
2022/05/29 10:57:02;;;;;;;0.40;0.10;;;;;;;17.57;49.14;100044.92;103873;1279;139434;-70
2022/05/29 10:59:44;;;;;;;0.40;0.20;;;;;;;17.83;48.20;100040.61;104199;1279;109242;-70
2022/05/29 11:05:37;;;;;;;0.40;0.10;;;;;;;18.29;47.13;100041.34;104246;1278;95543;-70
2022/05/29 11:08:13;;;;;;;0.40;0.10;;;;;;;18.32;47.07;100039.52;104178;1279;139054;-70
2022/05/29 11:11:03;;;;;;;0.40;0.10;;;;;;;18.59;47.75;100031.54;103851;1280;98509;-69
2022/05/29 11:13:50;;;;;;;0.40;0.10;;;;;;;18.88;46.98;100030.14;104143;1279;108862;-71
2022/05/29 11:16:30;;;;;;;0.40;0.10;;;;;;;18.98;46.34;100030.90;104226;1279;95933;-70
2022/05/29 11:19:16;;;;;;;0.40;0.10;;;;;;;19.07;45.60;100029.08;104186;1279;95223;-70
2022/05/29 11:22:22;;;;;;;0.40;0.10;;;;;;;19.13;43.31;100026.85;104064;1279;138589;-69
2022/05/29 11:24:53;;;;;;;0.40;0.10;;;;;;;19.26;42.49;100027.13;104176;1279;99089;-71
2022/05/29 11:27:54;;;;;;;0.40;0.10;;;;;;;19.45;43.50;100026.69;104063;1279;138694;-70
2022/05/29 11:30:31;;;;;;;0.40;0.10;;;;;;;19.81;42.62;100024.90;104149;1279;95275;-70
2022/05/29 11:33:12;;;;;;;0.40;0.10;;;;;;;19.93;41.60;100026.98;104076;1279;139053;-70
2022/05/29 11:35:46;;;;;;;0.40;0.10;;;;;;;20.03;41.02;100026.20;104223;1279;109717;-69
2022/05/29 11:38:24;;;;;;;0.40;0.10;;;;;;;20.07;41.59;100025.77;104128;1280;138903;-70
2022/05/29 11:40:58;;;;;;;0.40;0.10;;;;;;;20.07;41.60;100023.41;104280;1279;108677;-69
2022/05/29 11:43:40;;;;;;;0.40;0.10;;;;;;;20.08;41.89;100015.95;104112;1279;96058;-70
2022/05/29 11:52:01;;;;;;;0.40;0.10;;;;;;;19.82;41.15;100011.10;104123;1279;138320;-70
2022/05/29 11:54:39;;;;;;;0.40;0.10;;;;;;;19.63;41.64;100007.05;104133;1279;109035;-70
2022/05/29 11:57:10;;;;;;;0.40;0.10;;;;;;;19.70;42.18;100004.22;103937;1280;139208;-70
2022/05/29 11:59:42;;;;;;;0.40;0.10;;;;;;;19.77;42.21;99997.42;104230;1279;95263;-70
2022/05/29 12:02:32;;;;;;;0.40;0.10;;;;;;;19.76;41.84;99994.81;104025;1279;138708;-68
2022/05/29 12:05:16;;;;;;;0.40;0.10;;;;;;;19.64;41.79;99993.14;103399;1279;99401;-68
2022/05/29 12:07:58;;;;;;;0.40;0.10;;;;;;;19.61;42.04;99994.80;103212;1279;138693;-68
2022/05/29 12:10:34;;;;;;;0.40;0.10;;;;;;;19.64;42.55;99990.07;103452;1279;95325;-69
2022/05/29 12:13:09;;;;;;;0.40;0.10;;;;;;;19.60;42.02;99981.32;103335;1279;95164;-68
2022/05/29 12:15:37;;;;;;;0.40;0.10;;;;;;;19.58;42.59;99980.58;103211;1279;138002;-70
2022/05/29 12:18:18;;;;;;;0.40;0.10;;;;;;;19.54;42.39;99979.96;103047;1281;99873;-69
2022/05/29 12:20:55;;;;;;;0.40;0.10;;;;;;;19.51;42.64;99980.50;103288;1281;138065;-66
2022/05/29 12:23:31;;;;;;;0.40;0.10;;;;;;;19.43;42.45;99982.30;103321;1279;95998;-67
2022/05/29 12:26:07;;;;;;;0.40;0.10;;;;;;;19.33;43.12;99983.92;103312;1279;138728;-66